Time;durP1;ratioP1;P1;durP2;ratioP2;P2;SDS_P1;SDS_P2;PMS_P1;PMS_P2;Temp;Humidity;BMP_temperature;BMP_pressure;BME280_temperature;BME280_humidity;BME280_pressure;Samples;Min_cycle;Max_cycle;Signal;HPM_P1;HPM_P2
2021/11/21 00:01:36;;;;;;;8.50;2.60;;;;;;;;;;4912463;29;20071;-70
2021/11/21 00:04:08;;;;;;;6.95;2.65;;;;;;;;;;4893155;29;20063;-71
2021/11/21 00:06:38;;;;;;;9.57;2.60;;;;;;;;;;4893164;29;20056;-71
2021/11/21 00:09:08;;;;;;;8.00;2.55;;;;;;;;;;4852354;29;20054;-70
2021/11/21 00:11:39;;;;;;;7.63;2.85;;;;;;;;;;4874469;29;20101;-73
2021/11/21 00:14:10;;;;;;;11.15;3.10;;;;;;;;;;4877111;29;20064;-70
2021/11/21 00:16:41;;;;;;;5.03;2.80;;;;;;;;;;4904239;29;20052;-70
2021/11/21 00:19:12;;;;;;;7.72;2.83;;;;;;;;;;4912647;29;20561;-71
2021/11/21 00:21:42;;;;;;;7.40;2.97;;;;;;;;;;4915452;29;20066;-71
2021/11/21 00:24:15;;;;;;;5.25;2.45;;;;;;;;;;4930802;29;20534;-74
2021/11/21 00:26:46;;;;;;;12.85;3.42;;;;;;;;;;4915710;29;20541;-71
2021/11/21 00:29:16;;;;;;;11.50;2.90;;;;;;;;;;4912080;29;20067;-71
2021/11/21 00:31:47;;;;;;;7.57;2.80;;;;;;;;;;4911939;29;20044;-71
2021/11/21 00:34:17;;;;;;;9.20;2.72;;;;;;;;;;4930986;29;20055;-71
2021/11/21 00:36:49;;;;;;;6.13;2.85;;;;;;;;;;4921379;29;20516;-71
2021/11/21 00:39:19;;;;;;;7.72;2.97;;;;;;;;;;4912172;29;20559;-71
2021/11/21 00:41:50;;;;;;;9.25;3.20;;;;;;;;;;4929956;29;20059;-73
2021/11/21 00:44:22;;;;;;;;;;;;;;;;;;4931414;29;20056;-72
2021/11/21 00:46:53;;;;;;;10.85;3.13;;;;;;;;;;4935211;28;19929;-72
2021/11/21 00:49:23;;;;;;;7.75;3.22;;;;;;;;;;4969718;28;20064;-71
2021/11/21 00:51:53;;;;;;;6.32;3.05;;;;;;;;;;4967573;28;20054;-71
2021/11/21 00:54:43;;;;;;;7.65;3.08;;;;;;;;;;4950195;29;20059;-71
2021/11/21 00:57:15;;;;;;;5.88;2.63;;;;;;;;;;4950158;29;20059;-71
2021/11/21 00:59:46;;;;;;;10.25;3.10;;;;;;;;;;4969145;28;20128;-71
2021/11/21 01:02:18;;;;;;;10.93;3.00;;;;;;;;;;4924870;29;20079;-71
2021/11/21 01:04:49;;;;;;;9.77;3.10;;;;;;;;;;4911548;29;20056;-71
2021/11/21 01:07:21;;;;;;;9.52;3.40;;;;;;;;;;4892641;29;21076;-71
2021/11/21 01:09:52;;;;;;;12.63;3.03;;;;;;;;;;4930873;29;20125;-71
2021/11/21 01:12:22;;;;;;;5.25;3.30;;;;;;;;;;4952334;28;20075;-72
2021/11/21 01:14:53;;;;;;;7.72;3.13;;;;;;;;;;4912210;29;20064;-72
2021/11/21 01:17:23;;;;;;;9.38;3.03;;;;;;;;;;4911765;29;20056;-72
2021/11/21 01:19:59;;;;;;;12.85;3.45;;;;;;;;;;4949723;29;20054;-72
2021/11/21 01:22:31;;;;;;;12.48;3.78;;;;;;;;;;4953410;28;20059;-71
2021/11/21 01:25:06;;;;;;;9.73;3.35;;;;;;;;;;4949800;29;20055;-72
2021/11/21 01:27:37;;;;;;;10.60;2.97;;;;;;;;;;4949935;29;20090;-71
2021/11/21 01:30:11;;;;;;;10.13;3.30;;;;;;;;;;4883320;29;20048;-71
2021/11/21 01:32:42;;;;;;;8.55;3.08;;;;;;;;;;4892359;29;20191;-73
2021/11/21 01:35:13;;;;;;;7.88;3.30;;;;;;;;;;4911715;29;20064;-71
2021/11/21 01:37:44;;;;;;;7.57;3.75;;;;;;;;;;4891330;29;20106;-72
2021/11/21 01:40:16;;;;;;;11.15;3.40;;;;;;;;;;4877686;29;20451;-71
2021/11/21 01:42:49;;;;;;;7.85;3.05;;;;;;;;;;4870254;29;20056;-71
2021/11/21 01:45:20;;;;;;;5.82;2.90;;;;;;;;;;4892595;29;20040;-71
2021/11/21 01:47:51;;;;;;;6.63;3.28;;;;;;;;;;4892580;29;20056;-71
2021/11/21 01:50:48;;;;;;;9.30;3.53;;;;;;;;;;4865275;29;20112;-73
2021/11/21 01:53:18;;;;;;;10.98;2.95;;;;;;;;;;4854858;29;20076;-73
2021/11/21 01:55:49;;;;;;;9.50;3.05;;;;;;;;;;4840345;29;20065;-71
2021/11/21 01:58:19;;;;;;;6.57;2.97;;;;;;;;;;4839940;29;20062;-72
2021/11/21 02:00:50;;;;;;;9.27;3.20;;;;;;;;;;4840300;29;20475;-72
2021/11/21 02:03:21;;;;;;;8.70;3.17;;;;;;;;;;4799500;29;20058;-71
2021/11/21 02:05:52;;;;;;;9.73;3.20;;;;;;;;;;4876334;29;20060;-72
2021/11/21 02:08:23;;;;;;;11.00;3.28;;;;;;;;;;4844531;29;20061;-72
2021/11/21 02:10:59;;;;;;;11.25;3.00;;;;;;;;;;4853014;29;20522;-72
2021/11/21 02:13:29;;;;;;;9.02;3.58;;;;;;;;;;4863126;29;20049;-71
2021/11/21 02:16:00;;;;;;;8.80;3.22;;;;;;;;;;4842774;29;20065;-72
2021/11/21 02:18:31;;;;;;;8.77;3.70;;;;;;;;;;4857904;29;20060;-73
2021/11/21 02:21:01;;;;;;;11.75;3.65;;;;;;;;;;4859549;29;20553;-71
2021/11/21 02:23:31;;;;;;;9.63;3.17;;;;;;;;;;4826611;29;20456;-71
2021/11/21 02:26:02;;;;;;;11.23;3.67;;;;;;;;;;4821425;29;20058;-71
2021/11/21 02:28:36;;;;;;;7.50;3.58;;;;;;;;;;4839540;29;20080;-72
2021/11/21 02:31:07;;;;;;;16.42;3.42;;;;;;;;;;4899948;29;20202;-72
2021/11/21 02:33:38;;;;;;;7.25;3.40;;;;;;;;;;4932830;29;20115;-73
2021/11/21 02:36:09;;;;;;;12.18;3.47;;;;;;;;;;4916880;29;21066;-72
2021/11/21 02:38:39;;;;;;;10.18;4.00;;;;;;;;;;4913891;29;20048;-73
2021/11/21 02:41:10;;;;;;;10.73;3.78;;;;;;;;;;4903211;29;20064;-71
2021/11/21 02:43:43;;;;;;;8.65;3.30;;;;;;;;;;4916096;29;20059;-72
2021/11/21 02:46:18;;;;;;;8.57;3.85;;;;;;;;;;4921764;29;20060;-73
2021/11/21 02:48:49;;;;;;;10.75;3.70;;;;;;;;;;4913863;29;20059;-72
2021/11/21 02:51:19;;;;;;;8.02;3.35;;;;;;;;;;4913428;29;20052;-71
2021/11/21 02:53:50;;;;;;;7.88;3.38;;;;;;;;;;4898409;29;20067;-72
2021/11/21 02:56:21;;;;;;;7.22;3.45;;;;;;;;;;4945821;28;20054;-73
2021/11/21 02:58:52;;;;;;;12.82;3.45;;;;;;;;;;4940897;29;20052;-73
2021/11/21 03:01:25;;;;;;;8.43;3.40;;;;;;;;;;4932901;29;20090;-72
2021/11/21 03:03:56;;;;;;;9.30;3.83;;;;;;;;;;4947665;29;20059;-72
2021/11/21 03:06:28;;;;;;;9.90;3.67;;;;;;;;;;4924122;29;20082;-72
2021/11/21 03:08:59;;;;;;;13.48;4.10;;;;;;;;;;4913255;29;20052;-72
2021/11/21 03:11:35;;;;;;;9.25;4.07;;;;;;;;;;4895076;29;20059;-72
2021/11/21 03:14:06;;;;;;;11.60;3.70;;;;;;;;;;4894296;29;20465;-73
2021/11/21 03:16:37;;;;;;;6.80;3.55;;;;;;;;;;4902165;29;20448;-72
2021/11/21 03:19:07;;;;;;;6.72;3.58;;;;;;;;;;4955602;28;20061;-72
2021/11/21 03:21:38;;;;;;;10.23;4.10;;;;;;;;;;4931888;29;20052;-72
2021/11/21 03:24:09;;;;;;;6.47;3.47;;;;;;;;;;4931966;29;20067;-73
2021/11/21 03:26:40;;;;;;;10.18;3.70;;;;;;;;;;4932353;29;20066;-73
2021/11/21 03:29:10;;;;;;;7.68;3.72;;;;;;;;;;4932318;29;20067;-72
2021/11/21 03:31:42;;;;;;;10.13;4.75;;;;;;;;;;4932036;29;20064;-73
2021/11/21 03:34:12;;;;;;;12.18;3.70;;;;;;;;;;4932052;29;20070;-73
2021/11/21 03:36:43;;;;;;;7.88;3.65;;;;;;;;;;4931858;29;20056;-72
2021/11/21 03:39:13;;;;;;;12.00;4.07;;;;;;;;;;4916585;29;20059;-73
2021/11/21 03:41:44;;;;;;;8.32;4.00;;;;;;;;;;4931337;29;20054;-73
2021/11/21 03:44:15;;;;;;;7.00;3.53;;;;;;;;;;4920980;29;20059;-73
2021/11/21 03:46:45;;;;;;;8.68;4.03;;;;;;;;;;4873757;29;20167;-72
2021/11/21 03:49:16;;;;;;;8.70;3.60;;;;;;;;;;4893682;29;20045;-74
2021/11/21 03:51:46;;;;;;;13.77;4.05;;;;;;;;;;4893842;29;20109;-74
2021/11/21 03:54:17;;;;;;;5.75;3.10;;;;;;;;;;4893977;29;20076;-72
2021/11/21 03:56:47;;;;;;;9.75;3.53;;;;;;;;;;4902755;29;20059;-72
2021/11/21 03:59:19;;;;;;;10.57;3.67;;;;;;;;;;4874371;29;20065;-73
2021/11/21 04:01:50;;;;;;;6.88;3.60;;;;;;;;;;4874551;29;20060;-73
2021/11/21 04:04:21;;;;;;;10.35;4.00;;;;;;;;;;4874715;29;20540;-73
2021/11/21 04:06:51;;;;;;;12.65;4.03;;;;;;;;;;4892860;29;20505;-73
2021/11/21 04:09:22;;;;;;;7.25;4.03;;;;;;;;;;4894103;29;20057;-73
2021/11/21 04:11:53;;;;;;;7.90;3.70;;;;;;;;;;4893430;29;20072;-73
2021/11/21 04:14:24;;;;;;;7.50;3.78;;;;;;;;;;4893568;29;20068;-73
2021/11/21 04:16:53;;;;;;;7.35;3.70;;;;;;;;;;4893393;29;20062;-74
2021/11/21 04:19:24;;;;;;;7.38;3.60;;;;;;;;;;4902974;29;20067;-73
2021/11/21 04:21:54;;;;;;;8.88;3.65;;;;;;;;;;4903139;29;20056;-73
2021/11/21 04:24:25;;;;;;;8.30;3.58;;;;;;;;;;4884265;29;20107;-72
2021/11/21 04:26:55;;;;;;;6.63;3.47;;;;;;;;;;4912082;29;20044;-74
2021/11/21 04:29:27;;;;;;;11.88;3.65;;;;;;;;;;4912498;29;20528;-72
2021/11/21 04:31:58;;;;;;;8.20;3.80;;;;;;;;;;4930844;29;20051;-73
2021/11/21 04:34:30;;;;;;;11.40;3.97;;;;;;;;;;4902160;29;20052;-72
2021/11/21 04:37:00;;;;;;;9.88;4.10;;;;;;;;;;4881542;29;20051;-73
2021/11/21 04:39:30;;;;;;;8.48;3.85;;;;;;;;;;4940912;28;20055;-73
2021/11/21 04:42:01;;;;;;;6.85;3.63;;;;;;;;;;4959664;28;20047;-73
2021/11/21 04:44:32;;;;;;;8.98;3.95;;;;;;;;;;4959020;28;20228;-73
2021/11/21 04:47:03;;;;;;;9.80;3.72;;;;;;;;;;4969536;28;20412;-73
2021/11/21 04:49:33;;;;;;;8.23;3.55;;;;;;;;;;4969412;28;20059;-72
2021/11/21 04:52:04;;;;;;;8.48;3.78;;;;;;;;;;4969538;28;20058;-73
2021/11/21 04:54:35;;;;;;;7.13;3.70;;;;;;;;;;4969524;28;20051;-73
2021/11/21 04:57:08;;;;;;;7.07;3.83;;;;;;;;;;4969428;28;20443;-73
2021/11/21 04:59:38;;;;;;;7.65;3.70;;;;;;;;;;4968833;28;20523;-73
2021/11/21 05:02:09;;;;;;;9.13;4.03;;;;;;;;;;4949920;28;20058;-73
2021/11/21 05:04:40;;;;;;;8.10;3.60;;;;;;;;;;4939429;28;20056;-73
2021/11/21 05:07:10;;;;;;;5.93;3.28;;;;;;;;;;4934403;28;20060;-73
2021/11/21 05:09:41;;;;;;;10.02;3.90;;;;;;;;;;4949626;28;20488;-73
2021/11/21 05:12:11;;;;;;;7.05;3.83;;;;;;;;;;4953654;28;20059;-73
2021/11/21 05:14:42;;;;;;;7.53;3.83;;;;;;;;;;4972607;28;20454;-73
2021/11/21 05:17:12;;;;;;;7.80;3.90;;;;;;;;;;4972836;28;20417;-74
2021/11/21 05:19:43;;;;;;;6.18;3.80;;;;;;;;;;4937251;29;20075;-74
2021/11/21 05:22:13;;;;;;;9.82;3.63;;;;;;;;;;4922290;28;20054;-73
2021/11/21 05:24:44;;;;;;;8.60;3.95;;;;;;;;;;4972751;28;20069;-73
2021/11/21 05:27:15;;;;;;;11.63;3.90;;;;;;;;;;4973110;28;20051;-74
2021/11/21 05:29:45;;;;;;;9.23;3.53;;;;;;;;;;4972794;28;20553;-74
2021/11/21 05:32:15;;;;;;;8.35;3.25;;;;;;;;;;4953180;29;20108;-74
2021/11/21 05:34:46;;;;;;;6.38;3.47;;;;;;;;;;4921700;29;20508;-74
2021/11/21 05:37:18;;;;;;;7.22;3.80;;;;;;;;;;4953230;28;20051;-73
2021/11/21 05:39:48;;;;;;;9.02;3.17;;;;;;;;;;4905606;29;20051;-73
2021/11/21 05:42:19;;;;;;;8.63;3.60;;;;;;;;;;4953279;28;20051;-74
2021/11/21 05:44:49;;;;;;;7.65;3.50;;;;;;;;;;4953258;28;20059;-73
2021/11/21 05:47:20;;;;;;;9.57;3.80;;;;;;;;;;4944092;28;20056;-73
2021/11/21 05:49:51;;;;;;;10.02;3.80;;;;;;;;;;4933932;29;20059;-74
2021/11/21 05:52:21;;;;;;;8.43;3.60;;;;;;;;;;4981962;28;20054;-73
2021/11/21 05:54:53;;;;;;;8.70;3.47;;;;;;;;;;4972036;28;20054;-74
2021/11/21 05:57:23;;;;;;;8.70;3.40;;;;;;;;;;4943358;29;20058;-73
2021/11/21 05:59:53;;;;;;;7.18;3.80;;;;;;;;;;4953203;29;20066;-73
2021/11/21 06:02:24;;;;;;;9.38;3.25;;;;;;;;;;4930243;29;20749;-73
2021/11/21 06:04:54;;;;;;;6.65;3.67;;;;;;;;;;4913898;29;20056;-73
2021/11/21 06:07:24;;;;;;;8.52;3.70;;;;;;;;;;4899296;29;20076;-73
2021/11/21 06:09:55;;;;;;;7.68;3.60;;;;;;;;;;4908596;29;20059;-73
2021/11/21 06:12:26;;;;;;;9.43;3.70;;;;;;;;;;4933336;29;20044;-73
2021/11/21 06:14:56;;;;;;;8.95;3.40;;;;;;;;;;4926760;29;20055;-73
2021/11/21 06:17:26;;;;;;;8.85;3.60;;;;;;;;;;4905228;29;20051;-74
2021/11/21 06:19:57;;;;;;;9.50;3.45;;;;;;;;;;4933259;29;20508;-73
2021/11/21 06:22:28;;;;;;;10.38;3.78;;;;;;;;;;4917280;29;20055;-74
2021/11/21 06:24:59;;;;;;;10.82;3.58;;;;;;;;;;4934204;29;20055;-74
2021/11/21 06:27:29;;;;;;;9.45;4.00;;;;;;;;;;4889370;29;20055;-73
2021/11/21 06:29:59;;;;;;;8.60;3.63;;;;;;;;;;4911273;29;20436;-74
2021/11/21 06:32:33;;;;;;;7.53;3.50;;;;;;;;;;4932739;29;20059;-74
2021/11/21 06:35:05;;;;;;;10.45;3.67;;;;;;;;;;4910595;29;20428;-74
2021/11/21 06:37:36;;;;;;;7.78;3.70;;;;;;;;;;4932812;29;20058;-75
2021/11/21 06:40:07;;;;;;;6.18;3.40;;;;;;;;;;4917030;29;20052;-74
2021/11/21 06:42:38;;;;;;;9.90;3.90;;;;;;;;;;4961686;28;20046;-74
2021/11/21 06:45:11;;;;;;;8.90;3.72;;;;;;;;;;4971500;28;20062;-75
2021/11/21 06:47:42;;;;;;;7.25;3.55;;;;;;;;;;4971397;28;20058;-74
2021/11/21 06:50:16;;;;;;;11.00;3.60;;;;;;;;;;4955310;28;20050;-74
2021/11/21 06:52:47;;;;;;;13.02;3.92;;;;;;;;;;4951827;29;20051;-73
2021/11/21 06:55:17;;;;;;;12.63;3.33;;;;;;;;;;4967673;28;20067;-74
2021/11/21 06:57:48;;;;;;;7.70;3.80;;;;;;;;;;4971113;28;20055;-74
2021/11/21 07:00:18;;;;;;;8.43;3.85;;;;;;;;;;4971037;28;20106;-74
2021/11/21 07:02:48;;;;;;;9.07;3.85;;;;;;;;;;4923381;28;20435;-74
2021/11/21 07:05:20;;;;;;;8.25;3.50;;;;;;;;;;4955205;28;20055;-73
2021/11/21 07:07:51;;;;;;;4.97;3.05;;;;;;;;;;4970933;28;20058;-74
2021/11/21 07:10:21;;;;;;;7.75;3.55;;;;;;;;;;4934049;28;20553;-75
2021/11/21 07:12:52;;;;;;;7.38;3.28;;;;;;;;;;4951464;29;20468;-75
2021/11/21 07:15:22;;;;;;;8.40;3.65;;;;;;;;;;4923386;29;20051;-75
2021/11/21 07:17:53;;;;;;;7.45;3.10;;;;;;;;;;4932129;29;20059;-75
2021/11/21 07:20:23;;;;;;;10.45;4.25;;;;;;;;;;4919115;29;20058;-75
2021/11/21 07:22:54;;;;;;;10.77;3.63;;;;;;;;;;4970464;28;20051;-75
2021/11/21 07:25:26;;;;;;;8.10;3.40;;;;;;;;;;4970379;28;20054;-75
2021/11/21 07:27:56;;;;;;;5.80;3.53;;;;;;;;;;4970625;28;20434;-75
2021/11/21 07:30:26;;;;;;;9.70;3.15;;;;;;;;;;4960797;28;20055;-75
2021/11/21 07:32:56;;;;;;;6.75;3.25;;;;;;;;;;4919376;28;20606;-75
2021/11/21 07:35:26;;;;;;;7.85;3.45;;;;;;;;;;4960192;28;20466;-75
2021/11/21 07:37:58;;;;;;;8.90;3.40;;;;;;;;;;4970476;28;20059;-75
2021/11/21 07:40:28;;;;;;;7.68;3.28;;;;;;;;;;4970181;28;20058;-75
2021/11/21 07:42:58;;;;;;;8.15;3.55;;;;;;;;;;4970097;28;20479;-75
2021/11/21 07:45:28;;;;;;;7.65;3.55;;;;;;;;;;4970631;28;20411;-74
2021/11/21 07:47:59;;;;;;;7.53;3.40;;;;;;;;;;4970005;28;20484;-75
2021/11/21 07:50:29;;;;;;;7.05;3.58;;;;;;;;;;4953892;28;20070;-73
2021/11/21 07:53:00;;;;;;;7.15;3.30;;;;;;;;;;4960273;28;20163;-75
2021/11/21 07:55:30;;;;;;;8.68;3.60;;;;;;;;;;4928474;29;20534;-74
2021/11/21 07:58:01;;;;;;;8.10;3.30;;;;;;;;;;4950902;29;20063;-74
2021/11/21 08:00:32;;;;;;;6.45;3.20;;;;;;;;;;4941372;29;20138;-73
2021/11/21 08:03:03;;;;;;;6.75;3.88;;;;;;;;;;4950427;28;20074;-75
2021/11/21 08:05:33;;;;;;;10.73;4.00;;;;;;;;;;4918376;29;20047;-75
2021/11/21 08:08:04;;;;;;;6.55;3.38;;;;;;;;;;4905617;29;20052;-74
2021/11/21 08:10:36;;;;;;;7.72;3.50;;;;;;;;;;4915871;29;20060;-74
2021/11/21 08:13:08;;;;;;;7.45;3.42;;;;;;;;;;4931729;29;20063;-75
2021/11/21 08:15:38;;;;;;;7.03;3.65;;;;;;;;;;4884595;29;20203;-75
2021/11/21 08:18:08;;;;;;;12.63;3.50;;;;;;;;;;4921865;29;20067;-75
2021/11/21 08:20:39;;;;;;;6.15;3.22;;;;;;;;;;4912408;29;20056;-74
2021/11/21 08:23:09;;;;;;;9.55;3.10;;;;;;;;;;4931281;29;20067;-74
2021/11/21 08:25:40;;;;;;;9.00;4.32;;;;;;;;;;4931421;29;20067;-74
2021/11/21 08:28:10;;;;;;;7.57;3.55;;;;;;;;;;4911959;29;20068;-75
2021/11/21 08:30:40;;;;;;;7.65;3.60;;;;;;;;;;4922299;29;20055;-74
2021/11/21 08:33:11;;;;;;;11.75;3.22;;;;;;;;;;4931234;29;20055;-74
2021/11/21 08:35:42;;;;;;;6.97;3.45;;;;;;;;;;4930948;29;20052;-75
2021/11/21 08:38:13;;;;;;;7.10;3.33;;;;;;;;;;4931355;29;20056;-75
2021/11/21 08:40:43;;;;;;;8.35;3.30;;;;;;;;;;4893101;29;20056;-75
2021/11/21 08:43:14;;;;;;;8.20;3.58;;;;;;;;;;4884403;29;20059;-75
2021/11/21 08:45:45;;;;;;;7.97;3.75;;;;;;;;;;4945933;28;20069;-74
2021/11/21 08:48:16;;;;;;;8.63;3.65;;;;;;;;;;4973899;28;20098;-75
2021/11/21 08:50:46;;;;;;;8.15;3.40;;;;;;;;;;4957352;28;20392;-74
2021/11/21 08:53:16;;;;;;;7.82;3.88;;;;;;;;;;4955151;28;20050;-74
2021/11/21 08:55:47;;;;;;;7.78;3.22;;;;;;;;;;4976946;28;20042;-74
2021/11/21 08:58:18;;;;;;;7.40;3.20;;;;;;;;;;4972904;28;20446;-75
2021/11/21 09:00:48;;;;;;;9.27;3.72;;;;;;;;;;4973436;28;20061;-75
2021/11/21 09:03:19;;;;;;;8.80;3.80;;;;;;;;;;4925523;28;20054;-75
2021/11/21 09:05:49;;;;;;;5.32;3.00;;;;;;;;;;4973161;28;20051;-74
2021/11/21 09:08:19;;;;;;;7.00;3.05;;;;;;;;;;4973377;28;20186;-74
2021/11/21 09:10:49;;;;;;;9.48;2.95;;;;;;;;;;4992348;28;20062;-74
2021/11/21 09:13:20;;;;;;;9.50;2.80;;;;;;;;;;4982595;28;20058;-74
2021/11/21 09:15:51;;;;;;;7.22;3.30;;;;;;;;;;4992141;28;20391;-74
2021/11/21 09:18:24;;;;;;;6.97;3.35;;;;;;;;;;4956626;28;20057;-74
2021/11/21 09:20:57;;;;;;;8.10;3.03;;;;;;;;;;4973109;28;20646;-74
2021/11/21 09:23:27;;;;;;;10.95;3.25;;;;;;;;;;4940861;28;20059;-73
2021/11/21 09:25:58;;;;;;;8.85;3.13;;;;;;;;;;4934189;29;20428;-72
2021/11/21 09:28:28;;;;;;;7.22;2.85;;;;;;;;;;4934205;29;20063;-73
2021/11/21 09:30:58;;;;;;;8.32;3.15;;;;;;;;;;4924578;29;20067;-73
2021/11/21 09:33:29;;;;;;;7.53;3.13;;;;;;;;;;4915355;29;20056;-72
2021/11/21 09:36:00;;;;;;;7.45;3.83;;;;;;;;;;4908864;29;20056;-72
2021/11/21 09:38:30;;;;;;;5.43;3.13;;;;;;;;;;4915011;29;20064;-74
2021/11/21 09:41:00;;;;;;;6.80;3.10;;;;;;;;;;4896169;29;20048;-73
2021/11/21 09:43:32;;;;;;;7.70;3.40;;;;;;;;;;4896440;29;20065;-73
2021/11/21 09:46:02;;;;;;;9.98;3.60;;;;;;;;;;4896381;29;20092;-75
2021/11/21 09:48:33;;;;;;;8.55;3.40;;;;;;;;;;4892630;29;20064;-73
2021/11/21 09:51:04;;;;;;;9.20;3.47;;;;;;;;;;4867649;29;20049;-72
2021/11/21 09:53:35;;;;;;;8.13;4.22;;;;;;;;;;4878378;29;20055;-73
2021/11/21 09:56:06;;;;;;;8.40;3.50;;;;;;;;;;4906294;29;20052;-71
2021/11/21 09:58:36;;;;;;;11.02;3.65;;;;;;;;;;4932993;29;20056;-71
2021/11/21 10:01:07;;;;;;;11.65;3.53;;;;;;;;;;4933896;29;20070;-72
2021/11/21 10:03:47;;;;;;;5.65;2.92;;;;;;;;;;4943501;29;20500;-72
2021/11/21 10:06:49;;;;;;;6.38;3.20;;;;;;;;;;4952698;29;20066;-72
2021/11/21 10:09:19;;;;;;;7.70;3.50;;;;;;;;;;4952985;29;20055;-74
2021/11/21 10:12:03;;;;;;;8.57;3.67;;;;;;;;;;4952288;28;20067;-70
2021/11/21 10:15:03;;;;;;;9.88;3.90;;;;;;;;;;4952564;28;20047;-71
2021/11/21 10:17:37;;;;;;;7.75;3.72;;;;;;;;;;4953007;28;20051;-72
2021/11/21 10:20:15;;;;;;;7.80;3.83;;;;;;;;;;4939841;28;20407;-72
2021/11/21 10:23:06;;;;;;;9.68;3.85;;;;;;;;;;4956576;28;20066;-69
2021/11/21 10:25:43;;;;;;;7.93;3.75;;;;;;;;;;4942459;28;20052;-69
2021/11/21 10:28:31;;;;;;;8.45;3.65;;;;;;;;;;4914305;29;20052;-71
2021/11/21 10:31:15;;;;;;;11.52;3.80;;;;;;;;;;4940805;29;20047;-69
2021/11/21 10:33:53;;;;;;;9.00;3.80;;;;;;;;;;4914110;29;20048;-69
2021/11/21 10:36:30;;;;;;;8.38;3.90;;;;;;;;;;4921880;29;20168;-69
2021/11/21 10:39:08;;;;;;;11.93;4.30;;;;;;;;;;4898443;29;20048;-68
2021/11/21 10:41:44;;;;;;;15.13;4.32;;;;;;;;;;4914194;29;20766;-68
2021/11/21 10:44:20;;;;;;;7.05;4.35;;;;;;;;;;4914196;29;20060;-68
2021/11/21 10:46:57;;;;;;;9.13;4.28;;;;;;;;;;4914055;29;20060;-69
2021/11/21 10:49:39;;;;;;;7.38;4.32;;;;;;;;;;4904230;29;20073;-68
2021/11/21 10:52:43;;;;;;;8.57;4.18;;;;;;;;;;4919094;29;20063;-70
2021/11/21 10:55:16;;;;;;;9.07;3.97;;;;;;;;;;4888586;29;20412;-67
2021/11/21 10:57:47;;;;;;;7.93;3.78;;;;;;;;;;4876216;29;20068;-68
2021/11/21 11:00:21;;;;;;;10.15;4.57;;;;;;;;;;4875757;29;20524;-68
2021/11/21 11:02:52;;;;;;;7.43;4.40;;;;;;;;;;4838256;29;20427;-68
2021/11/21 11:05:25;;;;;;;7.63;4.00;;;;;;;;;;4839067;29;20061;-67
2021/11/21 11:08:03;;;;;;;8.32;4.68;;;;;;;;;;4857207;29;20057;-69
2021/11/21 11:10:34;;;;;;;9.10;4.70;;;;;;;;;;4851800;29;21107;-67
2021/11/21 11:13:08;;;;;;;8.75;3.83;;;;;;;;;;4839044;29;20063;-67
2021/11/21 11:15:43;;;;;;;6.75;3.83;;;;;;;;;;4841939;29;20204;-67
2021/11/21 11:18:17;;;;;;;8.25;4.15;;;;;;;;;;4857524;29;20062;-67
2021/11/21 11:20:49;;;;;;;8.10;4.22;;;;;;;;;;4894381;29;20052;-67
2021/11/21 11:23:20;;;;;;;8.27;3.90;;;;;;;;;;4894563;29;20056;-66
2021/11/21 11:25:57;;;;;;;7.95;3.95;;;;;;;;;;4856925;29;20406;-66
2021/11/21 11:28:40;;;;;;;6.63;4.15;;;;;;;;;;4835095;29;20058;-67
2021/11/21 11:31:27;;;;;;;8.15;4.18;;;;;;;;;;4840538;29;20633;-67
2021/11/21 11:34:00;;;;;;;6.70;4.30;;;;;;;;;;4857218;29;20060;-68
2021/11/21 11:36:31;;;;;;;;;;;;;;;;;;4842455;29;20057;-66
2021/11/21 11:39:04;;;;;;;8.25;4.05;;;;;;;;;;4876804;29;19939;-70
2021/11/21 11:41:55;;;;;;;7.35;4.10;;;;;;;;;;4950820;28;20055;-65
2021/11/21 11:44:25;;;;;;;6.65;4.10;;;;;;;;;;4970266;28;20082;-67
2021/11/21 11:46:56;;;;;;;8.25;4.10;;;;;;;;;;4970341;28;20050;-67
2021/11/21 11:49:40;;;;;;;10.15;3.70;;;;;;;;;;4970262;28;20434;-66
2021/11/21 11:52:10;;;;;;;;;;;;;;;;;;4970755;28;20443;-69
2021/11/21 11:54:42;;;;;;;7.20;3.55;;;;;;;;;;4922496;28;20401;-68
2021/11/21 11:57:15;;;;;;;8.95;3.75;;;;;;;;;;4931446;29;20055;-68
2021/11/21 11:59:47;;;;;;;6.00;3.60;;;;;;;;;;4919152;29;20059;-68
2021/11/21 12:02:27;;;;;;;8.98;3.80;;;;;;;;;;4950921;29;20055;-67
2021/11/21 12:05:00;;;;;;;6.57;3.55;;;;;;;;;;4969400;28;20507;-68
2021/11/21 12:07:34;;;;;;;7.90;3.63;;;;;;;;;;4969811;28;20047;-65
2021/11/21 12:10:11;;;;;;;10.23;6.45;;;;;;;;;;4969431;28;20074;-68
2021/11/21 12:13:04;;;;;;;27.48;24.52;;;;;;;;;;4969629;28;20058;-69
2021/11/21 12:15:36;;;;;;;8.00;3.60;;;;;;;;;;4969521;28;20062;-68
2021/11/21 12:18:08;;;;;;;7.90;3.50;;;;;;;;;;4930989;29;20055;-68
2021/11/21 12:20:54;;;;;;;7.45;4.97;;;;;;;;;;4894858;29;20061;-70
2021/11/21 12:23:43;;;;;;;23.42;16.05;;;;;;;;;;4912447;29;20064;-68
2021/11/21 12:26:41;;;;;;;7.50;5.28;;;;;;;;;;4912518;29;20056;-68
2021/11/21 12:29:34;;;;;;;5.82;3.40;;;;;;;;;;4950201;28;20060;-65
2021/11/21 12:32:25;;;;;;;6.22;3.45;;;;;;;;;;4934277;28;20506;-66
2021/11/21 12:34:56;;;;;;;6.80;4.28;;;;;;;;;;4930803;29;20521;-67
2021/11/21 12:37:39;;;;;;;4.57;3.30;;;;;;;;;;4931222;29;20051;-66
2021/11/21 12:40:20;;;;;;;5.50;3.45;;;;;;;;;;4912282;29;20064;-65
2021/11/21 12:43:00;;;;;;;8.73;3.83;;;;;;;;;;4918841;28;20067;-65
2021/11/21 12:45:39;;;;;;;10.73;4.03;;;;;;;;;;4906768;29;20078;-65
2021/11/21 12:48:11;;;;;;;5.75;3.63;;;;;;;;;;4931308;29;20067;-66
2021/11/21 12:50:50;;;;;;;6.78;3.38;;;;;;;;;;4927285;29;20686;-65
2021/11/21 12:53:27;;;;;;;;;;;;;;;;;;4912725;29;20060;-65
2021/11/21 12:56:07;;;;;;;8.35;4.72;;;;;;;;;;4923024;29;19923;-66
2021/11/21 12:58:39;;;;;;;4.70;3.42;;;;;;;;;;4931130;29;20055;-66
2021/11/21 13:01:17;;;;;;;6.93;3.55;;;;;;;;;;4899939;29;20056;-68
2021/11/21 13:03:49;;;;;;;7.32;3.50;;;;;;;;;;4880391;29;20579;-67
2021/11/21 13:06:19;;;;;;;5.28;3.42;;;;;;;;;;4948951;28;20055;-66
2021/11/21 13:08:50;;;;;;;6.65;3.92;;;;;;;;;;4949851;28;20047;-75
2021/11/21 13:11:23;;;;;;;7.15;3.47;;;;;;;;;;4930671;29;20069;-65
2021/11/21 13:13:59;;;;;;;6.45;3.30;;;;;;;;;;4934913;28;20059;-65
2021/11/21 13:16:31;;;;;;;6.78;3.75;;;;;;;;;;4918550;28;20051;-67
2021/11/21 13:19:05;;;;;;;7.32;3.55;;;;;;;;;;4949852;29;20058;-66
2021/11/21 13:21:38;;;;;;;5.82;3.33;;;;;;;;;;4950054;29;20063;-65
2021/11/21 13:24:11;;;;;;;6.03;3.58;;;;;;;;;;4968941;28;20047;-66
2021/11/21 13:26:43;;;;;;;31.20;20.90;;;;;;;;;;4969532;28;20674;-65
2021/11/21 13:29:14;;;;;;;31.10;16.10;;;;;;;;;;4952422;28;20056;-66
2021/11/21 13:31:45;;;;;;;7.57;4.03;;;;;;;;;;4932247;29;20052;-66
2021/11/21 13:34:18;;;;;;;38.70;27.63;;;;;;;;;;4915306;29;20064;-66
2021/11/21 13:36:58;;;;;;;26.17;15.40;;;;;;;;;;4914892;29;20055;-65
2021/11/21 13:39:36;;;;;;;54.28;28.45;;;;;;;;;;4909771;29;20391;-65
2021/11/21 13:42:17;;;;;;;66.45;34.05;;;;;;;;;;4867553;29;20053;-65
2021/11/21 13:44:50;;;;;;;5.95;3.72;;;;;;;;;;4875244;29;20063;-72
2021/11/21 13:47:30;;;;;;;7.55;3.03;;;;;;;;;;4896776;29;20505;-65
2021/11/21 13:50:01;;;;;;;5.88;2.90;;;;;;;;;;4914336;29;20056;-65
2021/11/21 13:52:33;;;;;;;5.90;2.97;;;;;;;;;;4914581;29;20052;-66
2021/11/21 13:55:07;;;;;;;5.28;2.97;;;;;;;;;;4914963;29;20064;-65
2021/11/21 13:57:47;;;;;;;4.82;3.13;;;;;;;;;;4899277;29;20148;-65
2021/11/21 14:00:21;;;;;;;8.15;3.47;;;;;;;;;;4896005;29;20056;-65
2021/11/21 14:02:58;;;;;;;12.25;6.30;;;;;;;;;;4932556;29;20059;-68
2021/11/21 14:05:29;;;;;;;8.48;4.03;;;;;;;;;;4951004;28;20046;-65
2021/11/21 14:08:00;;;;;;;6.80;2.72;;;;;;;;;;4971782;28;20047;-66
2021/11/21 14:10:34;;;;;;;13.07;6.60;;;;;;;;;;4933170;29;20067;-66
2021/11/21 14:13:17;;;;;;;10.13;2.45;;;;;;;;;;4896129;29;20067;-65
2021/11/21 14:15:49;;;;;;;4.43;1.92;;;;;;;;;;4933358;29;20052;-67
2021/11/21 14:18:22;;;;;;;3.65;2.40;;;;;;;;;;4933447;29;20052;-65
2021/11/21 14:20:54;;;;;;;5.13;2.30;;;;;;;;;;4952266;29;20565;-65
2021/11/21 14:23:29;;;;;;;4.75;2.20;;;;;;;;;;4952507;29;20055;-67
2021/11/21 14:26:05;;;;;;;4.65;2.25;;;;;;;;;;4932980;29;20048;-65
2021/11/21 14:29:06;;;;;;;10.10;2.83;;;;;;;;;;4952042;29;20051;-66
2021/11/21 14:31:36;;;;;;;6.68;4.03;;;;;;;;;;4903929;29;20045;-65
2021/11/21 14:34:13;;;;;;;5.25;3.45;;;;;;;;;;4895363;29;20525;-65
2021/11/21 14:36:54;;;;;;;5.75;3.45;;;;;;;;;;4895120;29;20060;-65
2021/11/21 14:39:26;;;;;;;7.18;4.90;;;;;;;;;;4896126;29;20531;-66
2021/11/21 14:42:01;;;;;;;3.85;2.42;;;;;;;;;;4913955;29;20060;-68
2021/11/21 14:44:33;;;;;;;6.13;4.45;;;;;;;;;;4913014;29;20068;-66
2021/11/21 14:47:05;;;;;;;10.00;3.65;;;;;;;;;;4877073;29;20057;-65
2021/11/21 14:49:41;;;;;;;4.22;2.35;;;;;;;;;;4895162;29;20056;-65
2021/11/21 14:52:13;;;;;;;5.43;2.22;;;;;;;;;;4895124;29;20057;-65
2021/11/21 14:54:45;;;;;;;4.85;2.20;;;;;;;;;;4876277;29;20053;-65
2021/11/21 14:57:19;;;;;;;8.68;2.45;;;;;;;;;;4876350;29;20053;-65
2021/11/21 14:59:50;;;;;;;4.40;2.25;;;;;;;;;;4876513;29;20065;-66
2021/11/21 15:02:20;;;;;;;3.55;1.92;;;;;;;;;;4860963;29;20166;-65
2021/11/21 15:04:51;;;;;;;4.78;2.05;;;;;;;;;;4861033;29;20068;-65
2021/11/21 15:07:21;;;;;;;3.38;1.80;;;;;;;;;;4894379;28;20784;-65
2021/11/21 15:09:52;;;;;;;3.00;1.75;;;;;;;;;;4951403;29;20132;-66
2021/11/21 15:12:21;;;;;;;6.53;2.28;;;;;;;;;;4951615;29;20063;-66
2021/11/21 15:14:52;;;;;;;4.35;1.67;;;;;;;;;;4932552;29;20418;-66